sensor_id;sensor_type;location;lat;lon;timestamp;P1;durP1;ratioP1;P2;durP2;ratioP2
12689;SDS011;6409;56.294;14.480;2022-10-03T00:00:16;1.20;;;1.10;;
12689;SDS011;6409;56.294;14.480;2022-10-03T00:02:53;1.10;;;1.00;;
12689;SDS011;6409;56.294;14.480;2022-10-03T00:05:40;1.40;;;1.20;;
12689;SDS011;6409;56.294;14.480;2022-10-03T00:08:17;1.13;;;1.03;;
12689;SDS011;6409;56.294;14.480;2022-10-03T00:10:55;1.37;;;1.27;;
12689;SDS011;6409;56.294;14.480;2022-10-03T00:13:29;1.07;;;1.00;;
12689;SDS011;6409;56.294;14.480;2022-10-03T00:16:02;1.03;;;0.97;;
12689;SDS011;6409;56.294;14.480;2022-10-03T00:18:37;1.27;;;1.17;;
12689;SDS011;6409;56.294;14.480;2022-10-03T00:21:24;1.30;;;1.20;;
12689;SDS011;6409;56.294;14.480;2022-10-03T00:24:03;1.17;;;1.10;;
12689;SDS011;6409;56.294;14.480;2022-10-03T00:26:41;4.43;;;1.20;;
12689;SDS011;6409;56.294;14.480;2022-10-03T00:29:27;1.17;;;1.17;;
12689;SDS011;6409;56.294;14.480;2022-10-03T00:32:03;1.50;;;1.40;;
12689;SDS011;6409;56.294;14.480;2022-10-03T00:34:38;0.93;;;0.93;;
12689;SDS011;6409;56.294;14.480;2022-10-03T00:37:14;1.03;;;1.03;;
12689;SDS011;6409;56.294;14.480;2022-10-03T00:39:50;3.63;;;1.30;;
12689;SDS011;6409;56.294;14.480;2022-10-03T00:42:49;1.13;;;1.03;;
12689;SDS011;6409;56.294;14.480;2022-10-03T00:45:51;1.13;;;1.03;;
12689;SDS011;6409;56.294;14.480;2022-10-03T00:48:42;4.00;;;1.50;;
12689;SDS011;6409;56.294;14.480;2022-10-03T00:51:31;1.40;;;1.30;;
12689;SDS011;6409;56.294;14.480;2022-10-03T00:54:08;2.90;;;1.27;;
12689;SDS011;6409;56.294;14.480;2022-10-03T00:56:50;1.30;;;1.20;;
12689;SDS011;6409;56.294;14.480;2022-10-03T00:59:37;1.43;;;1.33;;
12689;SDS011;6409;56.294;14.480;2022-10-03T01:02:16;1.10;;;1.10;;
12689;SDS011;6409;56.294;14.480;2022-10-03T01:04:52;1.50;;;1.40;;
12689;SDS011;6409;56.294;14.480;2022-10-03T01:07:28;1.07;;;1.07;;
12689;SDS011;6409;56.294;14.480;2022-10-03T01:10:07;1.57;;;1.30;;
12689;SDS011;6409;56.294;14.480;2022-10-03T01:15:27;1.07;;;1.07;;
12689;SDS011;6409;56.294;14.480;2022-10-03T01:18:09;5.40;;;1.40;;
12689;SDS011;6409;56.294;14.480;2022-10-03T01:20:47;1.50;;;1.30;;
12689;SDS011;6409;56.294;14.480;2022-10-03T01:26:14;1.17;;;1.00;;
12689;SDS011;6409;56.294;14.480;2022-10-03T01:28:51;2.77;;;1.20;;
12689;SDS011;6409;56.294;14.480;2022-10-03T01:31:40;1.03;;;0.97;;
12689;SDS011;6409;56.294;14.480;2022-10-03T01:34:11;0.93;;;0.93;;
12689;SDS011;6409;56.294;14.480;2022-10-03T01:36:44;2.37;;;1.20;;
12689;SDS011;6409;56.294;14.480;2022-10-03T01:39:18;2.20;;;1.10;;
12689;SDS011;6409;56.294;14.480;2022-10-03T01:41:51;1.20;;;1.10;;
12689;SDS011;6409;56.294;14.480;2022-10-03T01:44:25;1.60;;;1.20;;
12689;SDS011;6409;56.294;14.480;2022-10-03T01:46:57;2.30;;;1.53;;
12689;SDS011;6409;56.294;14.480;2022-10-03T01:49:35;2.97;;;1.17;;
12689;SDS011;6409;56.294;14.480;2022-10-03T01:52:08;1.77;;;1.37;;
12689;SDS011;6409;56.294;14.480;2022-10-03T01:54:39;1.10;;;1.10;;
12689;SDS011;6409;56.294;14.480;2022-10-03T01:57:12;3.07;;;1.30;;
12689;SDS011;6409;56.294;14.480;2022-10-03T01:59:46;1.00;;;1.00;;
12689;SDS011;6409;56.294;14.480;2022-10-03T02:02:20;1.20;;;1.10;;
12689;SDS011;6409;56.294;14.480;2022-10-03T02:04:57;1.30;;;1.20;;
12689;SDS011;6409;56.294;14.480;2022-10-03T02:07:28;1.40;;;1.30;;
12689;SDS011;6409;56.294;14.480;2022-10-03T02:10:05;3.03;;;1.27;;
12689;SDS011;6409;56.294;14.480;2022-10-03T02:12:39;1.00;;;1.00;;
12689;SDS011;6409;56.294;14.480;2022-10-03T02:15:10;3.50;;;1.50;;
12689;SDS011;6409;56.294;14.480;2022-10-03T02:17:42;4.43;;;1.20;;
12689;SDS011;6409;56.294;14.480;2022-10-03T02:20:16;1.23;;;1.17;;
12689;SDS011;6409;56.294;14.480;2022-10-03T02:22:50;1.10;;;1.10;;
12689;SDS011;6409;56.294;14.480;2022-10-03T02:25:26;1.33;;;1.23;;
12689;SDS011;6409;56.294;14.480;2022-10-03T02:34:24;2.50;;;1.53;;
12689;SDS011;6409;56.294;14.480;2022-10-03T02:42:51;1.30;;;1.07;;
12689;SDS011;6409;56.294;14.480;2022-10-03T02:48:36;1.20;;;1.10;;
12689;SDS011;6409;56.294;14.480;2022-10-03T02:54:13;2.07;;;1.67;;
12689;SDS011;6409;56.294;14.480;2022-10-03T03:00:08;1.20;;;1.10;;
12689;SDS011;6409;56.294;14.480;2022-10-03T03:17:50;1.50;;;1.40;;
12689;SDS011;6409;56.294;14.480;2022-10-03T03:23:27;1.30;;;1.20;;
12689;SDS011;6409;56.294;14.480;2022-10-03T03:29:01;1.43;;;1.33;;
12689;SDS011;6409;56.294;14.480;2022-10-03T03:31:35;1.50;;;1.33;;
12689;SDS011;6409;56.294;14.480;2022-10-03T03:34:06;1.50;;;1.40;;
12689;SDS011;6409;56.294;14.480;2022-10-03T03:36:37;1.57;;;1.43;;
12689;SDS011;6409;56.294;14.480;2022-10-03T03:39:12;1.40;;;1.30;;
12689;SDS011;6409;56.294;14.480;2022-10-03T03:41:45;1.47;;;1.40;;
12689;SDS011;6409;56.294;14.480;2022-10-03T03:47:29;1.30;;;1.20;;
12689;SDS011;6409;56.294;14.480;2022-10-03T03:50:12;1.20;;;1.20;;
12689;SDS011;6409;56.294;14.480;2022-10-03T03:52:59;1.43;;;1.33;;
12689;SDS011;6409;56.294;14.480;2022-10-03T03:55:39;1.30;;;1.20;;
12689;SDS011;6409;56.294;14.480;2022-10-03T03:58:31;1.73;;;1.40;;
12689;SDS011;6409;56.294;14.480;2022-10-03T04:01:17;1.60;;;1.50;;
12689;SDS011;6409;56.294;14.480;2022-10-03T04:03:58;1.60;;;1.50;;
12689;SDS011;6409;56.294;14.480;2022-10-03T04:06:34;2.10;;;1.47;;
12689;SDS011;6409;56.294;14.480;2022-10-03T04:09:18;1.70;;;1.60;;
12689;SDS011;6409;56.294;14.480;2022-10-03T04:12:13;2.40;;;1.20;;
12689;SDS011;6409;56.294;14.480;2022-10-03T04:20:52;1.50;;;1.40;;
12689;SDS011;6409;56.294;14.480;2022-10-03T04:23:28;2.37;;;1.70;;
12689;SDS011;6409;56.294;14.480;2022-10-03T04:26:10;1.53;;;1.40;;
12689;SDS011;6409;56.294;14.480;2022-10-03T04:29:05;4.53;;;1.50;;
12689;SDS011;6409;56.294;14.480;2022-10-03T04:31:46;5.53;;;1.80;;
12689;SDS011;6409;56.294;14.480;2022-10-03T04:34:23;1.50;;;1.40;;
12689;SDS011;6409;56.294;14.480;2022-10-03T04:37:07;1.70;;;1.60;;
12689;SDS011;6409;56.294;14.480;2022-10-03T04:39:43;1.67;;;1.57;;
12689;SDS011;6409;56.294;14.480;2022-10-03T04:42:17;3.73;;;1.80;;
12689;SDS011;6409;56.294;14.480;2022-10-03T04:45:03;2.00;;;1.80;;
12689;SDS011;6409;56.294;14.480;2022-10-03T04:47:39;1.47;;;1.37;;
12689;SDS011;6409;56.294;14.480;2022-10-03T04:50:17;1.50;;;1.40;;
12689;SDS011;6409;56.294;14.480;2022-10-03T04:52:51;2.00;;;1.20;;
12689;SDS011;6409;56.294;14.480;2022-10-03T04:55:24;2.00;;;1.80;;
12689;SDS011;6409;56.294;14.480;2022-10-03T04:57:57;1.27;;;1.23;;
12689;SDS011;6409;56.294;14.480;2022-10-03T05:00:29;1.90;;;1.67;;
12689;SDS011;6409;56.294;14.480;2022-10-03T05:03:00;1.47;;;1.37;;
12689;SDS011;6409;56.294;14.480;2022-10-03T05:05:38;1.80;;;1.70;;
12689;SDS011;6409;56.294;14.480;2022-10-03T05:08:19;1.60;;;1.50;;
12689;SDS011;6409;56.294;14.480;2022-10-03T05:11:06;1.87;;;1.47;;
12689;SDS011;6409;56.294;14.480;2022-10-03T05:13:42;4.83;;;1.60;;
12689;SDS011;6409;56.294;14.480;2022-10-03T05:16:19;2.03;;;1.60;;
12689;SDS011;6409;56.294;14.480;2022-10-03T05:18:54;1.80;;;1.67;;
12689;SDS011;6409;56.294;14.480;2022-10-03T05:21:32;1.50;;;1.40;;
12689;SDS011;6409;56.294;14.480;2022-10-03T05:24:14;1.63;;;1.53;;
12689;SDS011;6409;56.294;14.480;2022-10-03T05:26:48;1.73;;;1.50;;
12689;SDS011;6409;56.294;14.480;2022-10-03T05:29:22;1.53;;;1.43;;
12689;SDS011;6409;56.294;14.480;2022-10-03T05:32:01;2.07;;;1.70;;
12689;SDS011;6409;56.294;14.480;2022-10-03T05:34:46;1.80;;;1.70;;
12689;SDS011;6409;56.294;14.480;2022-10-03T05:37:43;2.60;;;1.57;;
12689;SDS011;6409;56.294;14.480;2022-10-03T05:40:35;1.97;;;1.60;;
12689;SDS011;6409;56.294;14.480;2022-10-03T05:43:08;1.47;;;1.37;;
12689;SDS011;6409;56.294;14.480;2022-10-03T05:45:48;5.10;;;1.67;;
12689;SDS011;6409;56.294;14.480;2022-10-03T05:48:22;1.50;;;1.40;;
12689;SDS011;6409;56.294;14.480;2022-10-03T05:54:01;1.63;;;1.53;;
12689;SDS011;6409;56.294;14.480;2022-10-03T05:56:58;2.87;;;2.00;;
12689;SDS011;6409;56.294;14.480;2022-10-03T05:59:58;1.70;;;1.60;;
12689;SDS011;6409;56.294;14.480;2022-10-03T06:02:44;2.47;;;1.90;;
12689;SDS011;6409;56.294;14.480;2022-10-03T06:05:52;1.43;;;1.37;;
12689;SDS011;6409;56.294;14.480;2022-10-03T06:11:20;1.90;;;1.80;;
12689;SDS011;6409;56.294;14.480;2022-10-03T06:14:16;1.80;;;1.70;;
12689;SDS011;6409;56.294;14.480;2022-10-03T06:16:55;4.13;;;1.90;;
12689;SDS011;6409;56.294;14.480;2022-10-03T06:19:35;2.50;;;2.00;;
12689;SDS011;6409;56.294;14.480;2022-10-03T06:25:19;4.53;;;1.80;;
12689;SDS011;6409;56.294;14.480;2022-10-03T06:31:39;1.57;;;1.47;;
12689;SDS011;6409;56.294;14.480;2022-10-03T06:34:41;1.90;;;1.77;;
12689;SDS011;6409;56.294;14.480;2022-10-03T06:37:41;2.00;;;1.67;;
12689;SDS011;6409;56.294;14.480;2022-10-03T06:43:52;1.40;;;1.30;;
12689;SDS011;6409;56.294;14.480;2022-10-03T06:49:30;2.17;;;1.97;;
12689;SDS011;6409;56.294;14.480;2022-10-03T06:52:20;2.80;;;1.87;;
12689;SDS011;6409;56.294;14.480;2022-10-03T06:55:22;1.50;;;1.40;;
12689;SDS011;6409;56.294;14.480;2022-10-03T07:04:34;1.90;;;1.40;;
12689;SDS011;6409;56.294;14.480;2022-10-03T07:07:18;1.93;;;1.70;;
12689;SDS011;6409;56.294;14.480;2022-10-03T07:10:11;1.80;;;1.70;;
12689;SDS011;6409;56.294;14.480;2022-10-03T07:19:03;2.53;;;2.00;;
12689;SDS011;6409;56.294;14.480;2022-10-03T07:25:19;1.47;;;1.33;;
12689;SDS011;6409;56.294;14.480;2022-10-03T07:28:23;1.50;;;1.40;;
12689;SDS011;6409;56.294;14.480;2022-10-03T07:31:04;1.40;;;1.30;;
12689;SDS011;6409;56.294;14.480;2022-10-03T07:36:30;1.40;;;1.30;;
12689;SDS011;6409;56.294;14.480;2022-10-03T07:39:41;2.03;;;1.83;;
12689;SDS011;6409;56.294;14.480;2022-10-03T07:42:39;1.60;;;1.50;;
12689;SDS011;6409;56.294;14.480;2022-10-03T07:45:33;1.57;;;1.47;;
12689;SDS011;6409;56.294;14.480;2022-10-03T07:51:20;4.83;;;1.77;;
12689;SDS011;6409;56.294;14.480;2022-10-03T07:57:08;1.43;;;1.33;;
12689;SDS011;6409;56.294;14.480;2022-10-03T08:02:42;1.50;;;1.40;;
12689;SDS011;6409;56.294;14.480;2022-10-03T08:05:21;1.80;;;1.70;;
12689;SDS011;6409;56.294;14.480;2022-10-03T08:07:57;1.60;;;1.50;;
12689;SDS011;6409;56.294;14.480;2022-10-03T08:13:25;1.93;;;1.83;;
12689;SDS011;6409;56.294;14.480;2022-10-03T08:16:04;1.70;;;1.60;;
12689;SDS011;6409;56.294;14.480;2022-10-03T08:21:47;1.50;;;1.50;;
12689;SDS011;6409;56.294;14.480;2022-10-03T08:24:23;1.90;;;1.80;;
12689;SDS011;6409;56.294;14.480;2022-10-03T08:27:08;1.77;;;1.67;;
12689;SDS011;6409;56.294;14.480;2022-10-03T08:29:50;1.90;;;1.70;;
12689;SDS011;6409;56.294;14.480;2022-10-03T08:32:56;1.63;;;1.53;;
12689;SDS011;6409;56.294;14.480;2022-10-03T08:35:33;1.83;;;1.73;;
12689;SDS011;6409;56.294;14.480;2022-10-03T08:38:33;1.73;;;1.63;;
12689;SDS011;6409;56.294;14.480;2022-10-03T08:41:31;1.73;;;1.50;;
12689;SDS011;6409;56.294;14.480;2022-10-03T08:44:31;2.00;;;1.60;;
12689;SDS011;6409;56.294;14.480;2022-10-03T08:47:24;1.60;;;1.50;;
12689;SDS011;6409;56.294;14.480;2022-10-03T08:50:22;2.90;;;1.70;;
12689;SDS011;6409;56.294;14.480;2022-10-03T08:53:15;1.90;;;1.80;;
12689;SDS011;6409;56.294;14.480;2022-10-03T08:56:07;1.80;;;1.70;;
12689;SDS011;6409;56.294;14.480;2022-10-03T08:58:55;3.30;;;2.03;;
12689;SDS011;6409;56.294;14.480;2022-10-03T09:08:05;2.10;;;1.80;;
12689;SDS011;6409;56.294;14.480;2022-10-03T09:11:17;1.73;;;1.63;;
12689;SDS011;6409;56.294;14.480;2022-10-03T09:26:09;2.00;;;1.90;;
12689;SDS011;6409;56.294;14.480;2022-10-03T09:32:04;2.00;;;1.90;;
12689;SDS011;6409;56.294;14.480;2022-10-03T09:35:27;2.00;;;1.90;;
12689;SDS011;6409;56.294;14.480;2022-10-03T09:38:18;1.90;;;1.80;;
12689;SDS011;6409;56.294;14.480;2022-10-03T09:53:23;5.00;;;1.93;;
12689;SDS011;6409;56.294;14.480;2022-10-03T09:56:26;1.97;;;1.87;;
12689;SDS011;6409;56.294;14.480;2022-10-03T09:59:35;1.97;;;1.87;;
12689;SDS011;6409;56.294;14.480;2022-10-03T10:02:44;1.93;;;1.77;;
12689;SDS011;6409;56.294;14.480;2022-10-03T10:27:29;2.10;;;2.00;;
12689;SDS011;6409;56.294;14.480;2022-10-03T10:30:19;1.80;;;1.80;;
12689;SDS011;6409;56.294;14.480;2022-10-03T10:32:59;1.77;;;1.67;;
12689;SDS011;6409;56.294;14.480;2022-10-03T10:45:26;4.20;;;1.47;;
12689;SDS011;6409;56.294;14.480;2022-10-03T10:48:25;1.63;;;1.27;;
12689;SDS011;6409;56.294;14.480;2022-10-03T10:57:36;1.90;;;1.80;;
12689;SDS011;6409;56.294;14.480;2022-10-03T11:00:23;1.40;;;1.40;;
12689;SDS011;6409;56.294;14.480;2022-10-03T11:09:05;2.70;;;1.60;;
12689;SDS011;6409;56.294;14.480;2022-10-03T11:18:06;1.60;;;1.50;;
12689;SDS011;6409;56.294;14.480;2022-10-03T11:21:10;1.47;;;1.37;;
12689;SDS011;6409;56.294;14.480;2022-10-03T11:24:15;1.43;;;1.37;;
12689;SDS011;6409;56.294;14.480;2022-10-03T11:30:21;1.50;;;1.50;;
12689;SDS011;6409;56.294;14.480;2022-10-03T11:33:29;1.53;;;1.43;;
12689;SDS011;6409;56.294;14.480;2022-10-03T11:39:14;1.40;;;1.40;;
12689;SDS011;6409;56.294;14.480;2022-10-03T11:41:50;2.10;;;1.30;;
12689;SDS011;6409;56.294;14.480;2022-10-03T11:44:23;1.20;;;1.20;;
12689;SDS011;6409;56.294;14.480;2022-10-03T11:46:55;1.10;;;1.10;;
12689;SDS011;6409;56.294;14.480;2022-10-03T11:52:44;12.93;;;1.33;;
12689;SDS011;6409;56.294;14.480;2022-10-03T11:55:28;1.93;;;1.20;;
12689;SDS011;6409;56.294;14.480;2022-10-03T11:58:03;1.30;;;1.20;;
12689;SDS011;6409;56.294;14.480;2022-10-03T12:00:40;0.90;;;0.90;;
12689;SDS011;6409;56.294;14.480;2022-10-03T12:03:12;3.90;;;1.20;;
12689;SDS011;6409;56.294;14.480;2022-10-03T12:05:52;2.90;;;1.10;;
12689;SDS011;6409;56.294;14.480;2022-10-03T12:08:43;1.80;;;0.90;;
12689;SDS011;6409;56.294;14.480;2022-10-03T12:11:22;0.80;;;0.80;;
12689;SDS011;6409;56.294;14.480;2022-10-03T12:14:05;1.20;;;1.00;;
12689;SDS011;6409;56.294;14.480;2022-10-03T12:16:44;4.43;;;1.30;;
12689;SDS011;6409;56.294;14.480;2022-10-03T12:19:22;0.90;;;0.90;;
12689;SDS011;6409;56.294;14.480;2022-10-03T12:21:55;2.00;;;1.00;;
12689;SDS011;6409;56.294;14.480;2022-10-03T12:24:27;2.03;;;1.30;;
12689;SDS011;6409;56.294;14.480;2022-10-03T12:26:59;1.37;;;1.27;;
12689;SDS011;6409;56.294;14.480;2022-10-03T12:29:31;2.60;;;1.33;;
12689;SDS011;6409;56.294;14.480;2022-10-03T12:32:03;1.00;;;1.00;;
12689;SDS011;6409;56.294;14.480;2022-10-03T12:34:42;1.20;;;1.10;;
12689;SDS011;6409;56.294;14.480;2022-10-03T12:37:23;1.07;;;1.03;;
12689;SDS011;6409;56.294;14.480;2022-10-03T12:40:01;0.90;;;0.90;;
12689;SDS011;6409;56.294;14.480;2022-10-03T12:42:31;1.00;;;1.00;;
12689;SDS011;6409;56.294;14.480;2022-10-03T12:45:01;2.40;;;1.17;;
12689;SDS011;6409;56.294;14.480;2022-10-03T12:47:31;1.03;;;1.03;;
12689;SDS011;6409;56.294;14.480;2022-10-03T12:50:07;0.90;;;0.90;;
12689;SDS011;6409;56.294;14.480;2022-10-03T12:52:41;1.17;;;1.17;;
12689;SDS011;6409;56.294;14.480;2022-10-03T12:55:21;1.57;;;1.10;;
12689;SDS011;6409;56.294;14.480;2022-10-03T12:58:02;1.20;;;1.10;;
12689;SDS011;6409;56.294;14.480;2022-10-03T13:00:32;1.33;;;1.20;;
12689;SDS011;6409;56.294;14.480;2022-10-03T13:03:05;1.70;;;1.30;;
12689;SDS011;6409;56.294;14.480;2022-10-03T13:09:15;1.00;;;1.00;;
12689;SDS011;6409;56.294;14.480;2022-10-03T13:11:54;1.10;;;1.10;;
12689;SDS011;6409;56.294;14.480;2022-10-03T13:14:34;1.03;;;1.03;;
12689;SDS011;6409;56.294;14.480;2022-10-03T13:17:11;5.30;;;1.27;;
12689;SDS011;6409;56.294;14.480;2022-10-03T13:19:46;4.17;;;1.23;;
12689;SDS011;6409;56.294;14.480;2022-10-03T13:25:03;1.10;;;1.10;;
12689;SDS011;6409;56.294;14.480;2022-10-03T13:27:39;1.10;;;1.10;;
12689;SDS011;6409;56.294;14.480;2022-10-03T13:30:12;1.20;;;1.17;;
12689;SDS011;6409;56.294;14.480;2022-10-03T13:32:43;1.07;;;1.07;;
12689;SDS011;6409;56.294;14.480;2022-10-03T13:35:17;4.10;;;1.43;;
12689;SDS011;6409;56.294;14.480;2022-10-03T13:38:12;1.30;;;1.20;;
12689;SDS011;6409;56.294;14.480;2022-10-03T13:40:58;2.67;;;1.13;;
12689;SDS011;6409;56.294;14.480;2022-10-03T13:43:32;1.03;;;1.03;;
12689;SDS011;6409;56.294;14.480;2022-10-03T13:46:02;1.00;;;1.00;;
12689;SDS011;6409;56.294;14.480;2022-10-03T13:48:32;2.50;;;1.00;;
12689;SDS011;6409;56.294;14.480;2022-10-03T13:51:00;1.00;;;1.00;;
12689;SDS011;6409;56.294;14.480;2022-10-03T13:53:38;1.00;;;1.00;;
12689;SDS011;6409;56.294;14.480;2022-10-03T13:56:27;0.90;;;0.90;;
12689;SDS011;6409;56.294;14.480;2022-10-03T14:02:05;1.00;;;1.00;;
12689;SDS011;6409;56.294;14.480;2022-10-03T14:04:47;1.30;;;1.03;;
12689;SDS011;6409;56.294;14.480;2022-10-03T14:07:23;0.90;;;0.90;;
12689;SDS011;6409;56.294;14.480;2022-10-03T14:10:11;1.07;;;1.07;;
12689;SDS011;6409;56.294;14.480;2022-10-03T14:12:47;4.50;;;0.90;;
12689;SDS011;6409;56.294;14.480;2022-10-03T14:15:30;0.73;;;0.73;;
12689;SDS011;6409;56.294;14.480;2022-10-03T14:18:04;0.80;;;0.80;;
12689;SDS011;6409;56.294;14.480;2022-10-03T14:20:38;2.93;;;1.13;;
12689;SDS011;6409;56.294;14.480;2022-10-03T14:23:29;1.70;;;0.93;;
12689;SDS011;6409;56.294;14.480;2022-10-03T14:25:58;1.10;;;1.00;;
12689;SDS011;6409;56.294;14.480;2022-10-03T14:28:30;2.77;;;0.80;;
12689;SDS011;6409;56.294;14.480;2022-10-03T14:31:05;0.70;;;0.70;;
12689;SDS011;6409;56.294;14.480;2022-10-03T14:33:37;2.33;;;1.17;;
12689;SDS011;6409;56.294;14.480;2022-10-03T14:36:21;0.80;;;0.80;;
12689;SDS011;6409;56.294;14.480;2022-10-03T14:39:02;0.90;;;0.90;;
12689;SDS011;6409;56.294;14.480;2022-10-03T14:41:43;0.70;;;0.70;;
12689;SDS011;6409;56.294;14.480;2022-10-03T14:44:12;0.83;;;0.80;;
12689;SDS011;6409;56.294;14.480;2022-10-03T14:46:43;0.60;;;0.60;;
12689;SDS011;6409;56.294;14.480;2022-10-03T14:49:16;1.47;;;1.37;;
12689;SDS011;6409;56.294;14.480;2022-10-03T14:51:46;0.67;;;0.67;;
12689;SDS011;6409;56.294;14.480;2022-10-03T14:54:16;2.73;;;1.00;;
12689;SDS011;6409;56.294;14.480;2022-10-03T14:56:45;0.70;;;0.70;;
12689;SDS011;6409;56.294;14.480;2022-10-03T14:59:16;1.13;;;0.97;;
12689;SDS011;6409;56.294;14.480;2022-10-03T15:01:47;0.60;;;0.60;;
12689;SDS011;6409;56.294;14.480;2022-10-03T15:04:16;0.70;;;0.70;;
12689;SDS011;6409;56.294;14.480;2022-10-03T15:06:55;3.13;;;1.20;;
12689;SDS011;6409;56.294;14.480;2022-10-03T15:09:27;0.70;;;0.70;;
12689;SDS011;6409;56.294;14.480;2022-10-03T15:11:58;2.20;;;0.80;;
12689;SDS011;6409;56.294;14.480;2022-10-03T15:14:29;0.70;;;0.70;;
12689;SDS011;6409;56.294;14.480;2022-10-03T15:17:00;2.43;;;0.73;;
12689;SDS011;6409;56.294;14.480;2022-10-03T15:19:32;0.70;;;0.70;;
12689;SDS011;6409;56.294;14.480;2022-10-03T15:22:04;0.60;;;0.60;;
12689;SDS011;6409;56.294;14.480;2022-10-03T15:24:38;0.60;;;0.60;;
12689;SDS011;6409;56.294;14.480;2022-10-03T15:27:06;2.20;;;0.83;;
12689;SDS011;6409;56.294;14.480;2022-10-03T15:29:37;0.60;;;0.60;;
12689;SDS011;6409;56.294;14.480;2022-10-03T15:32:06;0.60;;;0.60;;
12689;SDS011;6409;56.294;14.480;2022-10-03T15:34:44;0.60;;;0.60;;
12689;SDS011;6409;56.294;14.480;2022-10-03T15:37:14;1.50;;;0.70;;
12689;SDS011;6409;56.294;14.480;2022-10-03T15:39:44;0.67;;;0.67;;
12689;SDS011;6409;56.294;14.480;2022-10-03T15:42:18;0.60;;;0.60;;
12689;SDS011;6409;56.294;14.480;2022-10-03T15:44:48;2.03;;;0.80;;
12689;SDS011;6409;56.294;14.480;2022-10-03T15:47:19;0.60;;;0.60;;
12689;SDS011;6409;56.294;14.480;2022-10-03T15:49:48;1.67;;;1.00;;
12689;SDS011;6409;56.294;14.480;2022-10-03T15:52:22;2.27;;;0.60;;
12689;SDS011;6409;56.294;14.480;2022-10-03T15:54:52;0.50;;;0.50;;
12689;SDS011;6409;56.294;14.480;2022-10-03T15:57:23;0.60;;;0.60;;
12689;SDS011;6409;56.294;14.480;2022-10-03T15:59:54;0.60;;;0.60;;
12689;SDS011;6409;56.294;14.480;2022-10-03T16:02:25;1.40;;;0.70;;
12689;SDS011;6409;56.294;14.480;2022-10-03T16:04:57;0.70;;;0.70;;
12689;SDS011;6409;56.294;14.480;2022-10-03T16:07:27;1.23;;;0.63;;
12689;SDS011;6409;56.294;14.480;2022-10-03T16:10:01;0.50;;;0.50;;
12689;SDS011;6409;56.294;14.480;2022-10-03T16:12:47;1.27;;;0.63;;
12689;SDS011;6409;56.294;14.480;2022-10-03T16:15:19;0.53;;;0.53;;
12689;SDS011;6409;56.294;14.480;2022-10-03T16:17:53;0.63;;;0.63;;
12689;SDS011;6409;56.294;14.480;2022-10-03T16:20:22;0.60;;;0.60;;
12689;SDS011;6409;56.294;14.480;2022-10-03T16:22:51;0.50;;;0.50;;
12689;SDS011;6409;56.294;14.480;2022-10-03T16:25:20;0.60;;;0.60;;
12689;SDS011;6409;56.294;14.480;2022-10-03T16:27:51;0.60;;;0.60;;
12689;SDS011;6409;56.294;14.480;2022-10-03T16:30:20;1.13;;;0.93;;
12689;SDS011;6409;56.294;14.480;2022-10-03T16:32:49;0.93;;;0.93;;
12689;SDS011;6409;56.294;14.480;2022-10-03T16:35:32;0.87;;;0.70;;
12689;SDS011;6409;56.294;14.480;2022-10-03T16:38:02;0.90;;;0.90;;
12689;SDS011;6409;56.294;14.480;2022-10-03T16:40:33;0.70;;;0.70;;
12689;SDS011;6409;56.294;14.480;2022-10-03T16:43:02;1.03;;;0.87;;
12689;SDS011;6409;56.294;14.480;2022-10-03T16:45:34;0.80;;;0.80;;
12689;SDS011;6409;56.294;14.480;2022-10-03T16:48:10;1.90;;;1.07;;
12689;SDS011;6409;56.294;14.480;2022-10-03T16:50:57;0.50;;;0.50;;
12689;SDS011;6409;56.294;14.480;2022-10-03T16:53:26;0.60;;;0.60;;
12689;SDS011;6409;56.294;14.480;2022-10-03T16:55:54;1.30;;;0.83;;
12689;SDS011;6409;56.294;14.480;2022-10-03T16:58:24;1.27;;;0.90;;
12689;SDS011;6409;56.294;14.480;2022-10-03T17:00:54;1.13;;;0.90;;
12689;SDS011;6409;56.294;14.480;2022-10-03T17:03:27;1.30;;;0.90;;
12689;SDS011;6409;56.294;14.480;2022-10-03T17:05:57;1.17;;;1.00;;
12689;SDS011;6409;56.294;14.480;2022-10-03T17:08:26;2.43;;;1.50;;
12689;SDS011;6409;56.294;14.480;2022-10-03T17:10:57;4.20;;;1.00;;
12689;SDS011;6409;56.294;14.480;2022-10-03T17:13:26;1.13;;;0.50;;
12689;SDS011;6409;56.294;14.480;2022-10-03T17:15:58;0.73;;;0.73;;
12689;SDS011;6409;56.294;14.480;2022-10-03T17:18:31;0.57;;;0.57;;
12689;SDS011;6409;56.294;14.480;2022-10-03T17:21:03;0.90;;;0.90;;
12689;SDS011;6409;56.294;14.480;2022-10-03T17:23:36;1.23;;;0.60;;
12689;SDS011;6409;56.294;14.480;2022-10-03T17:26:06;2.20;;;0.70;;
12689;SDS011;6409;56.294;14.480;2022-10-03T17:28:37;1.00;;;0.83;;
12689;SDS011;6409;56.294;14.480;2022-10-03T17:31:12;0.67;;;0.67;;
12689;SDS011;6409;56.294;14.480;2022-10-03T17:33:57;3.07;;;0.90;;
12689;SDS011;6409;56.294;14.480;2022-10-03T17:39:36;1.40;;;0.60;;
12689;SDS011;6409;56.294;14.480;2022-10-03T17:42:07;0.60;;;0.60;;
12689;SDS011;6409;56.294;14.480;2022-10-03T17:44:48;0.53;;;0.53;;
12689;SDS011;6409;56.294;14.480;2022-10-03T17:47:22;2.77;;;0.60;;
12689;SDS011;6409;56.294;14.480;2022-10-03T17:49:54;1.57;;;0.67;;
12689;SDS011;6409;56.294;14.480;2022-10-03T17:52:24;0.53;;;0.50;;
12689;SDS011;6409;56.294;14.480;2022-10-03T17:54:52;1.33;;;0.50;;
12689;SDS011;6409;56.294;14.480;2022-10-03T17:57:21;4.80;;;0.73;;
12689;SDS011;6409;56.294;14.480;2022-10-03T17:59:53;2.77;;;0.60;;
12689;SDS011;6409;56.294;14.480;2022-10-03T18:02:23;0.50;;;0.50;;
12689;SDS011;6409;56.294;14.480;2022-10-03T18:04:58;0.40;;;0.40;;
12689;SDS011;6409;56.294;14.480;2022-10-03T18:07:28;3.10;;;1.03;;
12689;SDS011;6409;56.294;14.480;2022-10-03T18:09:56;2.97;;;0.70;;
12689;SDS011;6409;56.294;14.480;2022-10-03T18:12:26;6.03;;;1.07;;
12689;SDS011;6409;56.294;14.480;2022-10-03T18:15:03;0.70;;;0.50;;
12689;SDS011;6409;56.294;14.480;2022-10-03T18:18:06;2.17;;;0.77;;
12689;SDS011;6409;56.294;14.480;2022-10-03T18:20:53;0.80;;;0.50;;
12689;SDS011;6409;56.294;14.480;2022-10-03T18:23:34;1.33;;;0.90;;
12689;SDS011;6409;56.294;14.480;2022-10-03T18:26:04;1.37;;;0.53;;
12689;SDS011;6409;56.294;14.480;2022-10-03T18:28:38;0.40;;;0.40;;
12689;SDS011;6409;56.294;14.480;2022-10-03T18:31:09;0.67;;;0.50;;
12689;SDS011;6409;56.294;14.480;2022-10-03T18:33:43;0.77;;;0.70;;
12689;SDS011;6409;56.294;14.480;2022-10-03T18:36:17;0.50;;;0.50;;
12689;SDS011;6409;56.294;14.480;2022-10-03T18:38:47;1.40;;;0.80;;
12689;SDS011;6409;56.294;14.480;2022-10-03T18:41:16;11.87;;;0.97;;
12689;SDS011;6409;56.294;14.480;2022-10-03T18:43:44;0.93;;;0.63;;
12689;SDS011;6409;56.294;14.480;2022-10-03T18:46:16;0.83;;;0.70;;
12689;SDS011;6409;56.294;14.480;2022-10-03T18:48:46;3.70;;;0.97;;
12689;SDS011;6409;56.294;14.480;2022-10-03T18:51:23;0.50;;;0.50;;
12689;SDS011;6409;56.294;14.480;2022-10-03T18:53:53;2.30;;;1.43;;
12689;SDS011;6409;56.294;14.480;2022-10-03T18:56:22;1.03;;;0.73;;
12689;SDS011;6409;56.294;14.480;2022-10-03T18:58:56;1.20;;;0.67;;
12689;SDS011;6409;56.294;14.480;2022-10-03T19:01:36;0.93;;;0.60;;
12689;SDS011;6409;56.294;14.480;2022-10-03T19:04:12;1.80;;;0.73;;
12689;SDS011;6409;56.294;14.480;2022-10-03T19:06:45;0.50;;;0.50;;
12689;SDS011;6409;56.294;14.480;2022-10-03T19:09:17;1.00;;;1.00;;
12689;SDS011;6409;56.294;14.480;2022-10-03T19:11:49;2.03;;;0.87;;
12689;SDS011;6409;56.294;14.480;2022-10-03T19:14:19;0.80;;;0.60;;
12689;SDS011;6409;56.294;14.480;2022-10-03T19:16:57;3.80;;;1.13;;
12689;SDS011;6409;56.294;14.480;2022-10-03T19:19:33;2.93;;;0.77;;
12689;SDS011;6409;56.294;14.480;2022-10-03T19:22:11;0.40;;;0.40;;
12689;SDS011;6409;56.294;14.480;2022-10-03T19:24:39;2.53;;;0.63;;
12689;SDS011;6409;56.294;14.480;2022-10-03T19:27:09;0.50;;;0.50;;
12689;SDS011;6409;56.294;14.480;2022-10-03T19:29:38;0.67;;;0.60;;
12689;SDS011;6409;56.294;14.480;2022-10-03T19:32:14;0.73;;;0.57;;